Ana Sayfa
METAR-TAF:

METAR-TAF

Havaalanları :

Avalon, Kaliforniya, Amerika Birleşik Devletleri

Enlem: 33-24-18N, Boylam: 118-24-57W, yükseklik: 488 m

Güncel hava durumu gözlemi

Rapor saat 07:51 UTC de 49 dakika önce yapıldı.
Rüzgar batı/kuzeybatıdan 11 kt
Sıcaklık 13°C
Nem 62%
Basınç 1018 hPa
Görüş mesafesi: 16.1 km
Açık gökyüzü

METAR: KAVX 290751Z AUTO 30011KT 10SM CLR 13/06 A3007 RMK AO2 SLP171 T01280056 401940117

Saat: 00:40 (08:40 UTC)


TAF: eksik

4.000'den fazla havaalanı için hava durumu gözlemleri ve tahminleri (METAR ve TAF raporları).

Kullanılabilir istasyonlar harita üzerinde sarı ve kırmızı noktalarla gösterilir.

İstasyonun adını görmek için fareyi noktanın üzerinde gezdirin.

Sonrasında hava gözlem ve tahminlerini görmek için tıklayın.

Haritayı değiştirmek için: yaklaştırmak için siyah artı işaretli yeşil düğmeye ve uzaklaştırmak için de eksi işaretli düğmeye hızla tıklayın; bitişik haritalar için yeşil okları kullanın.


METAR-TAF: